Flight Track Log - Related Links

Times and Time Zones

All times are in EDT time to prevent confusion due to time zone crossing. See the EJA831 flight status page for this flight to view local times or setup timezone preferences in your user account.

Time Position Orientation Groundspeed Altitude Reporting Facility
EDT Latitude Longitude Course Direction KTS MPH feet Rate Location/Type
Wed 07:51:35 AM 40.2533 -79.4406 220° Southwest 220 253 3,500  Level Cleveland Center
Wed 07:52:12 AM 40.2286 -79.4681 220° Southwest 205 236 6,300 3,115 Climbing Cleveland Center
Wed 07:53:19 AM 40.2125 -79.5472 255° West 211 243 8,900 2,835 Climbing Cleveland Center
Wed 07:54:19 AM 40.2281 -79.6394 282° West 224 258 12,300 3,000 Climbing Cleveland Center
Wed 07:55:19 AM 40.2414 -79.7428 280° West 255 293 14,900 2,550 Climbing Cleveland Center
Wed 07:56:19 AM 40.2483 -79.8486 275° West 283 326 17,400 2,400 Climbing Cleveland Center
Wed 07:57:19 AM 40.2469 -79.9575 269° West 297 342 19,700 2,150 Climbing Cleveland Center
Wed 07:58:19 AM 40.2475 -80.0744 270° West 309 356 21,700 1,150 Climbing Cleveland Center
Wed 07:59:19 AM 40.2458 -80.1969 269° West 329 379 22,000 150 Climbing Cleveland Center
Wed 08:00:19 AM 40.2461 -80.3219 270° West 343 395 22,000  Level Cleveland Center
Wed 08:01:19 AM 40.2442 -80.4469 269° West 348 400 22,000  Level Cleveland Center
Wed 08:02:19 AM 40.2444 -80.5778 270° West 341 392 22,000  Level Cleveland Center
Wed 08:03:19 AM 40.2422 -80.6864 268° West 324 373 22,000  Level Cleveland Center
Wed 08:04:19 AM 40.2419 -80.7953 270° West 313 360 22,000  Level Cleveland Center
Wed 08:05:19 AM 40.2397 -80.9014 268° West 301 346 22,000  Level Cleveland Center
Wed 08:07:06 AM 40.2347 -81.0897 268° West 293 337 22,000  Level Indianapolis Center
Wed 08:08:07 AM 40.2333 -81.1975 269° West 294 338 22,000  Level Indianapolis Center
Wed 08:09:09 AM 40.2314 -81.3061 269° West 294 338 22,000  Level Indianapolis Center
Wed 08:10:11 AM 40.2297 -81.4139 269° West 293 337 22,000  Level Indianapolis Center
Wed 08:11:13 AM 40.2264 -81.5233 268° West 298 343 22,000  Level Indianapolis Center
Wed 08:12:14 AM 40.2175 -81.6347 264° West 304 350 22,000  Level Indianapolis Center
Wed 08:13:16 AM 40.2106 -81.7456 265° West 303 349 22,000  Level Indianapolis Center
Wed 08:14:18 AM 40.2022 -81.8597 265° West 304 350 22,000  Level Indianapolis Center
Wed 08:15:19 AM 40.1764 -81.9692 253° West 313 360 22,000  Level Indianapolis Center
Wed 08:16:21 AM 40.1483 -82.0778 251° West 313 360 22,000  Level Indianapolis Center
Wed 08:17:23 AM 40.1175 -82.1853 249° West 314 361 22,000  Level Indianapolis Center
Wed 08:18:25 AM 40.0839 -82.3117 251° West 313 360 22,000  Level Indianapolis Center
Wed 08:19:27 AM 40.0528 -82.4194 249° West 314 361 22,000  Level Indianapolis Center
Wed 08:20:28 AM 40.0244 -82.5272 251° West 313 360 22,000  Level Indianapolis Center
Wed 08:21:30 AM 39.9944 -82.6356 250° West 314 361 22,000  Level Indianapolis Center
Wed 08:22:32 AM 39.9653 -82.7414 250° West 309 356 22,000 -532 Level Indianapolis Center
Wed 08:23:34 AM 39.9350 -82.8494 250° West 315 362 20,900 -1,210 Descending Indianapolis Center
Wed 08:24:36 AM 39.9008 -82.9675 249° West 342 394 19,500 -1,355 Descending Indianapolis Center
Wed 08:25:38 AM 39.8675 -83.0875 250° West 348 400 18,100 -1,403 Descending Indianapolis Center
Wed 08:26:40 AM 39.8339 -83.2050 250° West 344 396 16,600 -1,073 Descending Indianapolis Center
Wed 08:27:41 AM 39.7950 -83.3414 250° West 338 389 15,900 -341 Descending Indianapolis Center
Wed 08:28:43 AM 39.7675 -83.4361 249° West 329 379 15,900  Level Indianapolis Center
Wed 08:29:45 AM 39.7344 -83.5503 249° West 328 377 15,900  Level Indianapolis Center
Wed 08:30:47 AM 39.6922 -83.6792 247° West 327 376 15,900  Level Indianapolis Center
Wed 08:31:49 AM 39.6456 -83.7850 240° Southwest 333 383 15,900 -871 Level Indianapolis Center
Wed 08:32:51 AM 39.5992 -83.8939 241° Southwest 340 391 14,100 -1,742 Descending Indianapolis Center
Wed 08:33:53 AM 39.5378 -83.9869 229° Southwest 338 389 12,300 -1,500 Descending Indianapolis Center
Wed 08:34:55 AM 39.4761 -84.0719 227° Southwest 325 374 11,000 -1,210 Descending Indianapolis Center
Wed 08:35:57 AM 39.4192 -84.1517 227° Southwest 303 349 9,800 -1,024 Descending Indianapolis Center
Wed 08:36:58 AM 39.3656 -84.2231 226° Southwest 281 323 8,900 -1,561 Descending Indianapolis Center
Wed 08:38:00 AM 39.3161 -84.2925 227° Southwest 269 310 6,600 -2,565 Descending Indianapolis Center
Wed 08:39:02 AM 39.2506 -84.3431 211° Southwest 246 283 3,600 -2,081 Descending Indianapolis Center
Wed 08:40:04 AM 39.1978 -84.3669 199° South 219 252 2,300 -987 Descending Indianapolis Center
Wed 08:41:40 AM 39.1333 -84.4000 202° Southwest 114 131 1,000 -813 Descending Cincinnati TRACON
Wed 08:43:00 AM 39.1033 -84.4186 223° Southwest  Level Estimated
Wed 08:50:00 AM 39.1000 -84.4167 57° Northeast  Level FlightAware Approximate

Login

Don't have an account? Register now (free) for customized features, flight alerts, and more!